Time;durP1;ratioP1;P1;durP2;ratioP2;P2;SDS_P1;SDS_P2;PMS_P1;PMS_P2;Temp;Humidity;BMP_temperature;BMP_pressure;BME280_temperature;BME280_humidity;BME280_pressure;Samples;Min_cycle;Max_cycle;Signal;HPM_P1;HPM_P2
2023/10/20 00:01:46;;;;;;;3.97;3.17;;;;;;;;;;5049833;28;20225;-81
2023/10/20 00:04:13;;;;;;;3.30;3.00;;;;;;;;;;5050930;28;20202;-81
2023/10/20 00:06:41;;;;;;;3.53;3.23;;;;;;;;;;5050511;28;20241;-81
2023/10/20 00:09:09;;;;;;;3.67;3.20;;;;;;;;;;5050171;28;20237;-81
2023/10/20 00:11:38;;;;;;;4.03;2.93;;;;;;;;;;5050270;28;20308;-81
2023/10/20 00:14:05;;;;;;;4.97;2.90;;;;;;;;;;5051195;28;20206;-81
2023/10/20 00:16:32;;;;;;;3.60;3.00;;;;;;;;;;5050541;28;20230;-81
2023/10/20 00:19:01;;;;;;;3.77;2.97;;;;;;;;;;5050702;28;20230;-81
2023/10/20 00:21:29;;;;;;;3.30;3.00;;;;;;;;;;5050109;28;20779;-81
2023/10/20 00:23:57;;;;;;;4.30;3.37;;;;;;;;;;5050702;28;20242;-81
2023/10/20 00:26:24;;;;;;;3.60;3.30;;;;;;;;;;5050402;28;20233;-81
2023/10/20 00:28:51;;;;;;;3.47;3.17;;;;;;;;;;5050595;28;20236;-81
2023/10/20 00:31:18;;;;;;;4.47;3.50;;;;;;;;;;5050177;28;20604;-81
2023/10/20 00:33:46;;;;;;;4.97;3.40;;;;;;;;;;5050343;28;20202;-81
2023/10/20 00:36:13;;;;;;;3.50;3.10;;;;;;;;;;5049944;28;20226;-81
2023/10/20 00:38:42;;;;;;;3.47;3.17;;;;;;;;;;5051800;28;20238;-81
2023/10/20 00:41:11;;;;;;;3.87;3.47;;;;;;;;;;5046032;28;20269;-81
2023/10/20 00:43:38;;;;;;;4.10;3.10;;;;;;;;;;5054153;28;20226;-81
2023/10/20 00:46:06;;;;;;;4.57;3.40;;;;;;;;;;5053698;28;20245;-81
2023/10/20 00:48:33;;;;;;;3.87;3.50;;;;;;;;;;5054355;28;20753;-81
2023/10/20 00:51:01;;;;;;;3.50;3.13;;;;;;;;;;5053478;28;20252;-81
2023/10/20 00:53:28;;;;;;;4.53;3.60;;;;;;;;;;5054368;28;20225;-81
2023/10/20 00:55:56;;;;;;;3.53;3.23;;;;;;;;;;5053875;28;20233;-81
2023/10/20 00:58:25;;;;;;;5.10;3.73;;;;;;;;;;5053991;28;20230;-81
2023/10/20 01:00:52;;;;;;;3.80;3.30;;;;;;;;;;5051183;28;20230;-81
2023/10/20 01:03:19;;;;;;;3.83;3.37;;;;;;;;;;5048014;28;20246;-81
2023/10/20 01:05:46;;;;;;;4.90;3.50;;;;;;;;;;5034063;28;20238;-81
2023/10/20 01:08:13;;;;;;;4.07;3.53;;;;;;;;;;5054633;28;20222;-81
2023/10/20 01:10:40;;;;;;;5.07;3.80;;;;;;;;;;5052313;28;20252;-81
2023/10/20 01:13:08;;;;;;;3.80;3.40;;;;;;;;;;5053847;28;20194;-81
2023/10/20 01:15:36;;;;;;;4.97;3.70;;;;;;;;;;5053360;28;20226;-81
2023/10/20 01:18:04;;;;;;;5.07;3.30;;;;;;;;;;5053350;28;20194;-81
2023/10/20 01:20:31;;;;;;;4.17;3.77;;;;;;;;;;5053221;28;20234;-81
2023/10/20 01:22:59;;;;;;;6.33;3.83;;;;;;;;;;5053461;28;20252;-81
2023/10/20 01:25:27;;;;;;;4.27;3.87;;;;;;;;;;5053211;28;20275;-81
2023/10/20 01:27:55;;;;;;;5.27;3.73;;;;;;;;;;5053470;28;20206;-81
2023/10/20 01:30:22;;;;;;;5.07;3.93;;;;;;;;;;5052837;28;20238;-81
2023/10/20 01:32:49;;;;;;;4.73;4.23;;;;;;;;;;5053499;28;20210;-81
2023/10/20 01:35:16;;;;;;;5.90;4.47;;;;;;;;;;5052609;28;20240;-81
2023/10/20 01:37:43;;;;;;;4.77;4.37;;;;;;;;;;5053160;28;20229;-81
2023/10/20 01:40:12;;;;;;;4.50;4.10;;;;;;;;;;5052164;28;20218;-81
2023/10/20 01:42:40;;;;;;;5.27;4.30;;;;;;;;;;5052950;28;20241;-81
2023/10/20 01:45:09;;;;;;;5.07;4.50;;;;;;;;;;5052516;28;20570;-82
2023/10/20 01:47:36;;;;;;;5.70;4.60;;;;;;;;;;5053216;28;20217;-81
2023/10/20 01:50:03;;;;;;;6.57;4.60;;;;;;;;;;5051162;28;20272;-82
2023/10/20 01:52:30;;;;;;;5.33;4.80;;;;;;;;;;5052831;28;20255;-81
2023/10/20 01:54:58;;;;;;;6.90;5.03;;;;;;;;;;5052899;28;20210;-81
2023/10/20 01:57:25;;;;;;;6.53;4.80;;;;;;;;;;5052173;28;20257;-81
2023/10/20 01:59:54;;;;;;;7.27;4.87;;;;;;;;;;5052833;28;20229;-81
2023/10/20 02:02:22;;;;;;;5.70;4.87;;;;;;;;;;5052010;28;20237;-81
2023/10/20 02:04:49;;;;;;;5.57;5.07;;;;;;;;;;5052699;28;20696;-81
2023/10/20 02:07:17;;;;;;;5.90;5.20;;;;;;;;;;5052418;28;20240;-81
2023/10/20 02:09:44;;;;;;;7.83;5.90;;;;;;;;;;5052373;28;20222;-81
2023/10/20 02:12:13;;;;;;;5.97;5.33;;;;;;;;;;5051101;28;20226;-81
2023/10/20 02:14:40;;;;;;;6.17;4.70;;;;;;;;;;5052814;28;20198;-81
2023/10/20 02:17:10;;;;;;;7.10;5.13;;;;;;;;;;5052304;28;20237;-81
2023/10/20 02:19:37;;;;;;;7.77;5.20;;;;;;;;;;5052426;28;20792;-81
2023/10/20 02:22:04;;;;;;;5.87;5.07;;;;;;;;;;5051315;28;20226;-81
2023/10/20 02:24:31;;;;;;;9.83;4.83;;;;;;;;;;5052641;28;20213;-81
2023/10/20 02:26:58;;;;;;;6.77;5.33;;;;;;;;;;5051927;28;20229;-82
2023/10/20 02:29:25;;;;;;;5.93;4.70;;;;;;;;;;5052243;28;20778;-82
2023/10/20 02:31:52;;;;;;;5.20;4.80;;;;;;;;;;5051703;28;20259;-82
2023/10/20 02:34:21;;;;;;;6.00;4.80;;;;;;;;;;5052255;28;20952;-79
2023/10/20 02:36:49;;;;;;;5.30;4.43;;;;;;;;;;5051757;28;20230;-79
2023/10/20 02:39:17;;;;;;;7.10;4.60;;;;;;;;;;5051992;28;20233;-80
2023/10/20 02:41:44;;;;;;;5.13;4.63;;;;;;;;;;5050491;28;20291;-79
2023/10/20 02:44:13;;;;;;;9.10;5.10;;;;;;;;;;5052065;28;20230;-80
2023/10/20 02:46:40;;;;;;;6.73;4.83;;;;;;;;;;5051517;28;20248;-80
2023/10/20 02:49:07;;;;;;;5.03;4.30;;;;;;;;;;5051573;28;20226;-80
2023/10/20 02:51:35;;;;;;;6.37;4.63;;;;;;;;;;5050837;28;20724;-80
2023/10/20 02:54:02;;;;;;;5.97;4.40;;;;;;;;;;5051587;28;20202;-80
2023/10/20 02:56:29;;;;;;;9.93;5.03;;;;;;;;;;5051150;28;20233;-80
2023/10/20 02:58:56;;;;;;;5.93;4.87;;;;;;;;;;5051657;28;20244;-79
2023/10/20 03:01:24;;;;;;;5.97;5.37;;;;;;;;;;5050400;28;20329;-80
2023/10/20 03:03:51;;;;;;;6.40;5.20;;;;;;;;;;5051288;28;20225;-79
2023/10/20 03:06:19;;;;;;;5.97;4.57;;;;;;;;;;5051059;28;20230;-79
2023/10/20 03:08:47;;;;;;;5.80;4.93;;;;;;;;;;5051037;28;20735;-80
2023/10/20 03:11:14;;;;;;;7.27;4.47;;;;;;;;;;5050483;28;20229;-80
2023/10/20 03:13:41;;;;;;;9.03;5.27;;;;;;;;;;5050989;28;20205;-80
2023/10/20 03:16:08;;;;;;;6.60;5.00;;;;;;;;;;5050835;28;20221;-80
2023/10/20 03:18:35;;;;;;;6.03;4.83;;;;;;;;;;5051331;28;20230;-80
2023/10/20 03:21:03;;;;;;;5.40;4.80;;;;;;;;;;5057112;28;20730;-79
2023/10/20 03:23:30;;;;;;;8.70;4.73;;;;;;;;;;5050948;28;20222;-79
2023/10/20 03:25:58;;;;;;;5.03;4.50;;;;;;;;;;5050871;28;20730;-80
2023/10/20 03:28:25;;;;;;;5.63;4.77;;;;;;;;;;5051088;28;20602;-79
2023/10/20 03:30:53;;;;;;;6.57;4.97;;;;;;;;;;5050584;28;20245;-79
2023/10/20 03:33:20;;;;;;;7.70;4.90;;;;;;;;;;5050716;28;20263;-79
2023/10/20 03:35:47;;;;;;;8.10;5.27;;;;;;;;;;5051893;28;20226;-81
2023/10/20 03:38:15;;;;;;;6.23;4.77;;;;;;;;;;5051013;28;20225;-81
2023/10/20 03:40:42;;;;;;;6.47;5.23;;;;;;;;;;5034080;28;20284;-81
2023/10/20 03:43:11;;;;;;;6.30;5.33;;;;;;;;;;5050833;28;20593;-81
2023/10/20 03:45:41;;;;;;;5.67;4.70;;;;;;;;;;5050345;28;20256;-80
2023/10/20 03:48:09;;;;;;;7.13;4.80;;;;;;;;;;5050784;28;20209;-80
2023/10/20 03:50:38;;;;;;;6.17;5.20;;;;;;;;;;5050121;28;20238;-81
2023/10/20 03:53:05;;;;;;;5.90;5.30;;;;;;;;;;5050954;28;20247;-80
2023/10/20 03:55:34;;;;;;;8.33;5.97;;;;;;;;;;5050392;28;20287;-81
2023/10/20 03:58:02;;;;;;;7.37;6.33;;;;;;;;;;5050800;28;20213;-80
2023/10/20 04:00:31;;;;;;;6.67;6.00;;;;;;;;;;5049790;28;20676;-81
2023/10/20 04:02:59;;;;;;;6.87;5.83;;;;;;;;;;5054053;28;20221;-81
2023/10/20 04:05:26;;;;;;;8.30;6.60;;;;;;;;;;5055305;28;21641;-81
2023/10/20 04:07:54;;;;;;;9.90;5.93;;;;;;;;;;5050720;28;20613;-81
2023/10/20 04:10:21;;;;;;;8.30;6.73;;;;;;;;;;5049865;28;20209;-82
2023/10/20 04:12:48;;;;;;;8.63;7.00;;;;;;;;;;5050635;28;20198;-83
2023/10/20 04:15:17;;;;;;;8.83;6.40;;;;;;;;;;5053714;28;20210;-83
2023/10/20 04:17:52;;;;;;;9.27;6.37;;;;;;;;;;5054811;28;20230;-83
2023/10/20 04:20:20;;;;;;;9.23;6.67;;;;;;;;;;5054285;28;20613;-82
2023/10/20 04:22:50;;;;;;;7.67;6.47;;;;;;;;;;5054449;28;20696;-81
2023/10/20 04:25:17;;;;;;;7.27;6.17;;;;;;;;;;5054416;28;20244;-82
2023/10/20 04:27:54;;;;;;;9.57;7.37;;;;;;;;;;5055071;28;20210;-82
2023/10/20 04:53:10;;;;;;;14.97;7.60;;;;;;;;;;5034161;28;20229;-81
2023/10/20 04:58:23;;;;;;;9.77;7.67;;;;;;;;;;5033054;28;20218;-81
2023/10/20 05:01:01;;;;;;;9.80;7.70;;;;;;;;;;5033858;28;20317;-80
2023/10/20 05:03:34;;;;;;;11.73;7.63;;;;;;;;;;5034520;28;20669;-80
2023/10/20 05:06:20;;;;;;;10.93;7.70;;;;;;;;;;5033798;28;20238;-81
2023/10/20 05:08:47;;;;;;;10.33;7.50;;;;;;;;;;5034116;28;20238;-81
2023/10/20 05:11:15;;;;;;;9.93;7.13;;;;;;;;;;5033236;28;20253;-81
2023/10/20 05:13:42;;;;;;;9.97;7.80;;;;;;;;;;5034109;28;20199;-82
2023/10/20 05:16:10;;;;;;;12.23;8.50;;;;;;;;;;5033239;28;20748;-82
2023/10/20 05:18:37;;;;;;;12.83;8.87;;;;;;;;;;5033692;28;20538;-81
2023/10/20 05:21:05;;;;;;;13.63;8.70;;;;;;;;;;5032742;28;20230;-82
2023/10/20 05:23:34;;;;;;;12.07;9.60;;;;;;;;;;5033304;28;20276;-82
2023/10/20 05:26:02;;;;;;;13.77;9.30;;;;;;;;;;5040911;28;20299;-82
2023/10/20 05:28:29;;;;;;;14.37;9.90;;;;;;;;;;5050565;28;20696;-82
2023/10/20 05:30:56;;;;;;;12.60;9.17;;;;;;;;;;5052627;28;20221;-82
2023/10/20 05:33:23;;;;;;;11.40;7.37;;;;;;;;;;5053135;28;20730;-82
2023/10/20 05:35:50;;;;;;;10.20;7.90;;;;;;;;;;5052950;28;20226;-82
2023/10/20 05:38:17;;;;;;;9.40;7.37;;;;;;;;;;5053003;28;20236;-82
2023/10/20 05:40:46;;;;;;;10.50;7.77;;;;;;;;;;5052816;28;20230;-85
2023/10/20 05:43:13;;;;;;;12.97;8.77;;;;;;;;;;5053373;28;20233;-82
2023/10/20 05:45:40;;;;;;;11.00;8.00;;;;;;;;;;5052838;28;20734;-81
2023/10/20 05:48:08;;;;;;;12.40;9.47;;;;;;;;;;5053144;28;20217;-82
2023/10/20 05:50:36;;;;;;;16.40;9.30;;;;;;;;;;5052662;28;20715;-82
2023/10/20 05:53:03;;;;;;;15.13;10.37;;;;;;;;;;5038408;28;20199;-82
2023/10/20 05:55:30;;;;;;;13.90;9.50;;;;;;;;;;5051565;28;20234;-81
2023/10/20 05:57:59;;;;;;;17.67;10.57;;;;;;;;;;5052242;28;20328;-82
2023/10/20 06:00:26;;;;;;;12.33;10.00;;;;;;;;;;5051843;28;20245;-82
2023/10/20 06:02:54;;;;;;;13.20;10.13;;;;;;;;;;5052844;28;20212;-81
2023/10/20 06:05:22;;;;;;;12.37;9.80;;;;;;;;;;5052431;28;20241;-82
2023/10/20 06:07:49;;;;;;;14.47;9.57;;;;;;;;;;5052566;28;20702;-82
2023/10/20 06:10:22;;;;;;;12.87;10.40;;;;;;;;;;5052237;28;20244;-82
2023/10/20 06:12:49;;;;;;;12.63;10.33;;;;;;;;;;5052629;28;20220;-82
2023/10/20 06:15:18;;;;;;;13.20;10.43;;;;;;;;;;5052179;28;20585;-82
2023/10/20 06:17:45;;;;;;;14.20;10.63;;;;;;;;;;5053140;28;20577;-82
2023/10/20 06:20:13;;;;;;;15.57;10.17;;;;;;;;;;5051803;28;20716;-81
2023/10/20 06:22:41;;;;;;;15.53;10.97;;;;;;;;;;5052737;28;20263;-82
2023/10/20 06:25:12;;;;;;;16.77;11.30;;;;;;;;;;5052036;28;20226;-82
2023/10/20 06:27:39;;;;;;;19.17;10.17;;;;;;;;;;5052643;28;20205;-82
2023/10/20 06:30:14;;;;;;;12.83;10.80;;;;;;;;;;5051998;28;20222;-82
2023/10/20 06:32:42;;;;;;;14.87;11.37;;;;;;;;;;5052391;28;20274;-82
2023/10/20 06:35:12;;;;;;;12.57;10.57;;;;;;;;;;5052070;28;20355;-82
2023/10/20 06:37:46;;;;;;;13.43;10.07;;;;;;;;;;5051634;28;20297;-82
2023/10/20 06:40:15;;;;;;;16.70;10.17;;;;;;;;;;5051747;28;20230;-82
2023/10/20 06:42:43;;;;;;;11.63;10.30;;;;;;;;;;5051796;28;20301;-82
2023/10/20 06:45:10;;;;;;;12.93;10.17;;;;;;;;;;5051610;28;20222;-82
2023/10/20 06:47:39;;;;;;;12.27;9.97;;;;;;;;;;5051988;28;20233;-82
2023/10/20 06:50:08;;;;;;;12.60;9.27;;;;;;;;;;5051368;28;20635;-82
2023/10/20 06:52:35;;;;;;;12.87;9.37;;;;;;;;;;5051712;28;20684;-82
2023/10/20 06:55:03;;;;;;;13.67;9.00;;;;;;;;;;5051876;28;20215;-82
2023/10/20 06:57:30;;;;;;;12.37;9.97;;;;;;;;;;5051568;28;20233;-82
2023/10/20 06:59:57;;;;;;;14.97;9.53;;;;;;;;;;5051976;28;20283;-82
2023/10/20 07:02:24;;;;;;;14.00;8.87;;;;;;;;;;5058359;28;20232;-82
2023/10/20 07:04:51;;;;;;;12.00;8.70;;;;;;;;;;5071548;28;20230;-81
2023/10/20 07:07:19;;;;;;;12.80;9.40;;;;;;;;;;5071277;28;20229;-82
2023/10/20 07:09:47;;;;;;;14.00;9.37;;;;;;;;;;5071569;28;20588;-82
2023/10/20 07:12:14;;;;;;;12.20;9.33;;;;;;;;;;5070556;28;20765;-82
2023/10/20 07:14:43;;;;;;;23.57;15.57;;;;;;;;;;5071246;28;20201;-83
2023/10/20 07:17:11;;;;;;;15.40;11.10;;;;;;;;;;5071225;28;20704;-83
2023/10/20 07:19:38;;;;;;;14.47;9.27;;;;;;;;;;5071582;28;20240;-82
2023/10/20 07:22:06;;;;;;;12.53;9.23;;;;;;;;;;5070896;28;20241;-83
2023/10/20 07:24:35;;;;;;;13.00;9.40;;;;;;;;;;5071389;28;20241;-83
2023/10/20 07:27:02;;;;;;;10.10;9.03;;;;;;;;;;5070999;28;20248;-82
2023/10/20 07:29:30;;;;;;;12.93;10.00;;;;;;;;;;5071395;28;20233;-83
2023/10/20 07:31:58;;;;;;;13.63;10.30;;;;;;;;;;5070905;28;20236;-83
2023/10/20 07:34:27;;;;;;;11.27;8.90;;;;;;;;;;5071473;28;20212;-84
2023/10/20 07:36:54;;;;;;;12.47;9.67;;;;;;;;;;5071146;28;20233;-82
2023/10/20 07:39:22;;;;;;;11.10;9.53;;;;;;;;;;5071572;28;20237;-86
2023/10/20 07:41:52;;;;;;;11.07;9.50;;;;;;;;;;5070924;28;20781;-82
2023/10/20 07:44:19;;;;;;;17.07;9.47;;;;;;;;;;5071268;28;20229;-83
2023/10/20 07:46:46;;;;;;;13.80;10.50;;;;;;;;;;5070842;28;20236;-82
2023/10/20 07:49:13;;;;;;;10.93;9.23;;;;;;;;;;5071154;28;20664;-82
2023/10/20 07:51:40;;;;;;;12.53;9.73;;;;;;;;;;5070193;28;20236;-82
2023/10/20 07:54:08;;;;;;;14.10;10.00;;;;;;;;;;5071452;28;20197;-81
2023/10/20 07:56:35;;;;;;;15.33;10.17;;;;;;;;;;5070787;28;20241;-82
2023/10/20 07:59:03;;;;;;;11.80;9.30;;;;;;;;;;5071069;28;20225;-81
2023/10/20 08:01:30;;;;;;;13.30;10.23;;;;;;;;;;5055361;28;20280;-81
2023/10/20 08:03:57;;;;;;;13.63;10.30;;;;;;;;;;5071192;28;20303;-81
2023/10/20 08:06:25;;;;;;;12.60;10.23;;;;;;;;;;5070571;28;20241;-82
2023/10/20 08:08:52;;;;;;;11.90;9.33;;;;;;;;;;5070987;28;20278;-82
2023/10/20 08:11:19;;;;;;;10.37;9.03;;;;;;;;;;5070390;28;20240;-81
2023/10/20 08:13:50;;;;;;;13.90;9.20;;;;;;;;;;5070988;28;20215;-81
2023/10/20 08:16:21;;;;;;;15.43;10.20;;;;;;;;;;5070602;28;20232;-82
2023/10/20 08:18:48;;;;;;;10.90;8.00;;;;;;;;;;5070821;28;20229;-81
2023/10/20 08:21:16;;;;;;;11.37;9.67;;;;;;;;;;5070562;28;20241;-81
2023/10/20 08:23:43;;;;;;;12.60;9.20;;;;;;;;;;5070796;28;20240;-81
2023/10/20 08:26:15;;;;;;;11.93;9.67;;;;;;;;;;5070517;28;20316;-82
2023/10/20 08:28:42;;;;;;;11.80;8.87;;;;;;;;;;5070740;28;20225;-82
2023/10/20 08:31:10;;;;;;;10.33;8.50;;;;;;;;;;5070350;28;20232;-82
2023/10/20 08:33:38;;;;;;;10.10;7.97;;;;;;;;;;5070966;28;20300;-82
2023/10/20 08:36:12;;;;;;;12.10;8.60;;;;;;;;;;5053918;28;20229;-82
2023/10/20 08:38:39;;;;;;;10.40;8.30;;;;;;;;;;5050533;28;20242;-82
2023/10/20 08:41:10;;;;;;;15.70;9.23;;;;;;;;;;5049338;28;20230;-82
2023/10/20 08:43:39;;;;;;;13.33;8.93;;;;;;;;;;5050782;28;20209;-82
2023/10/20 08:46:08;;;;;;;10.43;6.60;;;;;;;;;;5050029;28;20240;-81
2023/10/20 08:48:35;;;;;;;8.83;6.60;;;;;;;;;;5050684;28;20280;-81
2023/10/20 08:51:03;;;;;;;6.37;5.60;;;;;;;;;;5050194;28;20229;-81
2023/10/20 08:53:33;;;;;;;7.63;5.90;;;;;;;;;;5050838;28;20206;-81
2023/10/20 08:56:01;;;;;;;6.40;5.70;;;;;;;;;;5050272;28;20280;-81
2023/10/20 08:58:28;;;;;;;9.13;5.87;;;;;;;;;;5050154;28;20260;-82
2023/10/20 09:00:57;;;;;;;6.17;5.57;;;;;;;;;;5053172;28;20229;-82
2023/10/20 09:03:25;;;;;;;8.23;6.13;;;;;;;;;;5069339;28;20209;-81
2023/10/20 09:05:52;;;;;;;7.50;6.10;;;;;;;;;;5073567;28;20777;-81
2023/10/20 09:08:22;;;;;;;9.20;7.17;;;;;;;;;;5073764;28;20228;-82
2023/10/20 09:10:49;;;;;;;9.87;7.80;;;;;;;;;;5073453;28;20768;-81
2023/10/20 09:13:16;;;;;;;12.03;6.50;;;;;;;;;;5074061;28;20209;-81
2023/10/20 09:15:43;;;;;;;7.07;5.60;;;;;;;;;;5073340;28;20240;-81
2023/10/20 09:18:10;;;;;;;8.17;6.67;;;;;;;;;;5073570;28;20209;-82
2023/10/20 09:20:37;;;;;;;7.83;6.23;;;;;;;;;;5073256;28;20699;-82
2023/10/20 09:23:09;;;;;;;9.73;5.83;;;;;;;;;;5073993;28;20215;-82
2023/10/20 09:25:38;;;;;;;9.27;6.57;;;;;;;;;;5073238;28;20233;-82
2023/10/20 09:28:05;;;;;;;11.43;7.27;;;;;;;;;;5073644;28;20205;-81
2023/10/20 09:30:33;;;;;;;10.47;7.80;;;;;;;;;;5073294;28;20236;-82
2023/10/20 09:33:00;;;;;;;10.50;6.93;;;;;;;;;;5073588;28;20207;-81
2023/10/20 09:35:29;;;;;;;9.00;7.63;;;;;;;;;;5073043;28;20299;-82
2023/10/20 09:37:56;;;;;;;9.27;7.23;;;;;;;;;;5073426;28;20224;-81
2023/10/20 09:40:24;;;;;;;7.87;6.97;;;;;;;;;;5072922;28;20236;-81
2023/10/20 09:43:03;;;;;;;9.17;7.40;;;;;;;;;;5073324;28;20206;-81
2023/10/20 09:45:33;;;;;;;9.23;6.60;;;;;;;;;;5072625;28;20324;-82
2023/10/20 09:48:02;;;;;;;7.73;6.57;;;;;;;;;;5073434;28;20209;-81
2023/10/20 09:50:31;;;;;;;8.47;6.17;;;;;;;;;;5073024;28;20233;-82
2023/10/20 09:52:58;;;;;;;7.80;6.67;;;;;;;;;;5073397;28;20233;-82
2023/10/20 09:55:25;;;;;;;8.60;6.73;;;;;;;;;;5072816;28;20233;-82
2023/10/20 09:57:54;;;;;;;9.13;7.53;;;;;;;;;;5073146;28;20247;-82
2023/10/20 10:00:30;;;;;;;8.10;7.33;;;;;;;;;;5045552;28;20213;-82
2023/10/20 10:02:58;;;;;;;8.33;6.30;;;;;;;;;;5065955;28;20250;-82
2023/10/20 10:05:26;;;;;;;9.53;7.43;;;;;;;;;;5065516;28;20644;-82
2023/10/20 10:08:04;;;;;;;8.87;7.40;;;;;;;;;;5060780;28;20214;-82
2023/10/20 10:10:31;;;;;;;10.27;8.03;;;;;;;;;;5053386;28;20253;-82
2023/10/20 10:13:01;;;;;;;9.07;7.73;;;;;;;;;;5060521;28;20198;-81
2023/10/20 10:15:36;;;;;;;9.00;8.10;;;;;;;;;;5053088;28;20249;-82
2023/10/20 10:18:08;;;;;;;8.40;7.50;;;;;;;;;;5065824;28;20201;-81
2023/10/20 10:20:41;;;;;;;8.90;7.63;;;;;;;;;;5063664;28;20784;-81
2023/10/20 10:23:10;;;;;;;11.03;8.30;;;;;;;;;;5055528;28;20205;-82
2023/10/20 10:25:39;;;;;;;12.03;8.40;;;;;;;;;;5059900;28;20279;-81
2023/10/20 10:28:11;;;;;;;11.17;8.67;;;;;;;;;;5060648;28;20578;-81
2023/10/20 10:30:39;;;;;;;10.97;8.80;;;;;;;;;;5062617;28;20688;-81
2023/10/20 10:33:08;;;;;;;9.13;7.53;;;;;;;;;;5053830;28;20198;-83
2023/10/20 10:35:35;;;;;;;12.47;9.03;;;;;;;;;;5062484;28;20316;-81
2023/10/20 10:38:03;;;;;;;12.10;8.33;;;;;;;;;;5057867;28;20217;-82
2023/10/20 10:40:31;;;;;;;11.70;8.73;;;;;;;;;;5061323;28;20316;-81
2023/10/20 10:42:58;;;;;;;10.10;8.93;;;;;;;;;;5063377;28;20205;-82
2023/10/20 10:45:30;;;;;;;9.47;7.53;;;;;;;;;;5052282;28;20237;-81
2023/10/20 10:48:08;;;;;;;12.70;9.00;;;;;;;;;;5062680;28;20679;-81
2023/10/20 10:50:37;;;;;;;8.77;7.83;;;;;;;;;;5070045;28;20645;-82
2023/10/20 10:53:04;;;;;;;12.90;8.90;;;;;;;;;;5063684;28;20214;-81
2023/10/20 10:55:31;;;;;;;12.23;9.00;;;;;;;;;;5066296;28;20233;-80
2023/10/20 10:57:59;;;;;;;9.70;8.27;;;;;;;;;;5068438;28;20198;-82
2023/10/20 11:00:27;;;;;;;11.53;8.70;;;;;;;;;;5069544;28;20230;-81
2023/10/20 11:02:55;;;;;;;8.63;7.73;;;;;;;;;;5068690;28;20210;-80
2023/10/20 11:05:22;;;;;;;9.57;7.90;;;;;;;;;;5067531;28;21522;-81
2023/10/20 11:08:02;;;;;;;9.50;8.10;;;;;;;;;;5067596;28;20198;-81
2023/10/20 11:10:30;;;;;;;5.50;5.00;;;;;;;;;;5060091;28;20236;-81
2023/10/20 11:12:57;;;;;;;5.07;4.57;;;;;;;;;;5071823;28;20201;-81
2023/10/20 11:15:29;;;;;;;6.30;5.63;;;;;;;;;;5079831;28;20233;-81
2023/10/20 11:17:57;;;;;;;5.73;5.13;;;;;;;;;;5075272;28;20208;-81
2023/10/20 11:20:24;;;;;;;5.30;4.70;;;;;;;;;;5070847;28;20320;-82
2023/10/20 11:22:53;;;;;;;5.13;4.63;;;;;;;;;;5058963;28;20206;-81
2023/10/20 11:25:21;;;;;;;5.57;5.07;;;;;;;;;;5050053;28;20233;-82
2023/10/20 11:27:53;;;;;;;5.73;4.90;;;;;;;;;;5051101;28;20320;-82
2023/10/20 11:30:23;;;;;;;5.77;4.50;;;;;;;;;;5051303;28;20313;-82
2023/10/20 11:32:53;;;;;;;6.30;5.20;;;;;;;;;;5051700;28;20201;-81
2023/10/20 11:35:21;;;;;;;5.97;5.17;;;;;;;;;;5050939;28;20206;-82
2023/10/20 11:37:48;;;;;;;4.57;4.13;;;;;;;;;;5050962;28;20216;-82
2023/10/20 11:40:16;;;;;;;7.70;4.80;;;;;;;;;;5050628;28;20602;-82
2023/10/20 11:42:43;;;;;;;6.27;5.10;;;;;;;;;;5062524;28;20206;-80
2023/10/20 11:45:11;;;;;;;5.83;4.83;;;;;;;;;;5070832;28;20228;-81
2023/10/20 11:47:38;;;;;;;5.50;5.00;;;;;;;;;;5070952;28;20244;-81
2023/10/20 11:50:09;;;;;;;6.43;4.33;;;;;;;;;;5070381;28;20604;-81
2023/10/20 11:52:36;;;;;;;4.77;4.27;;;;;;;;;;5070679;28;20205;-81
2023/10/20 11:55:04;;;;;;;4.57;3.97;;;;;;;;;;5070495;28;20572;-82
2023/10/20 11:57:32;;;;;;;4.00;3.53;;;;;;;;;;5070906;28;20209;-81
2023/10/20 12:00:01;;;;;;;4.83;3.77;;;;;;;;;;5070624;28;20275;-81
2023/10/20 12:02:28;;;;;;;4.50;4.10;;;;;;;;;;5062537;28;20233;-81
2023/10/20 12:04:55;;;;;;;3.70;3.40;;;;;;;;;;5050629;28;20202;-81
2023/10/20 12:07:24;;;;;;;3.93;3.53;;;;;;;;;;5050494;28;20249;-82
2023/10/20 12:09:51;;;;;;;3.73;3.20;;;;;;;;;;5050537;28;20265;-82
2023/10/20 12:12:19;;;;;;;2.70;2.50;;;;;;;;;;5050367;28;20232;-81
2023/10/20 12:14:46;;;;;;;2.47;2.27;;;;;;;;;;5050760;28;20212;-81
2023/10/20 12:17:14;;;;;;;2.50;2.30;;;;;;;;;;5050507;28;20313;-80
2023/10/20 12:19:42;;;;;;;3.27;2.57;;;;;;;;;;5050324;28;20226;-81
2023/10/20 12:22:09;;;;;;;2.43;2.20;;;;;;;;;;5050093;28;20233;-81
2023/10/20 12:24:37;;;;;;;2.43;2.23;;;;;;;;;;5050815;28;20279;-82
2023/10/20 12:27:05;;;;;;;2.03;1.90;;;;;;;;;;5050293;28;20713;-81
2023/10/20 12:29:32;;;;;;;2.10;2.00;;;;;;;;;;5051225;28;20282;-81
2023/10/20 12:31:59;;;;;;;2.00;1.90;;;;;;;;;;5070037;28;20231;-82
2023/10/20 12:34:27;;;;;;;1.57;1.53;;;;;;;;;;5071655;28;20231;-84
2023/10/20 12:36:54;;;;;;;2.73;2.43;;;;;;;;;;5045993;28;20226;-82
2023/10/20 12:39:22;;;;;;;2.57;1.97;;;;;;;;;;5054487;28;20245;-83
2023/10/20 12:41:51;;;;;;;1.97;1.77;;;;;;;;;;5053739;28;20332;-82
2023/10/20 12:44:18;;;;;;;1.90;1.80;;;;;;;;;;5054777;28;20601;-81
2023/10/20 12:46:45;;;;;;;1.80;1.70;;;;;;;;;;5053610;28;20633;-81
2023/10/20 12:49:12;;;;;;;2.13;1.63;;;;;;;;;;5054388;28;20224;-82
2023/10/20 12:51:41;;;;;;;1.70;1.60;;;;;;;;;;5053468;28;20229;-82
2023/10/20 12:54:08;;;;;;;2.03;1.83;;;;;;;;;;5054828;28;20230;-82
2023/10/20 12:56:35;;;;;;;1.90;1.73;;;;;;;;;;5053706;28;20233;-82
2023/10/20 12:59:03;;;;;;;3.13;1.80;;;;;;;;;;5053920;28;20228;-83
2023/10/20 13:01:30;;;;;;;1.37;1.27;;;;;;;;;;5053388;28;20249;-82
2023/10/20 13:03:59;;;;;;;1.40;1.20;;;;;;;;;;5046373;28;20324;-83
2023/10/20 13:06:26;;;;;;;1.13;1.07;;;;;;;;;;5053559;28;20284;-85
2023/10/20 13:08:53;;;;;;;1.10;1.10;;;;;;;;;;5053903;28;20280;-82
2023/10/20 13:11:20;;;;;;;1.60;1.50;;;;;;;;;;5068956;28;20229;-83
2023/10/20 13:13:47;;;;;;;1.60;1.50;;;;;;;;;;5073960;28;20209;-82
2023/10/20 13:16:15;;;;;;;2.22;1.50;;;;;;;;;;5073566;28;20218;-82
2023/10/20 13:18:42;;;;;;;1.63;1.33;;;;;;;;;;5073452;28;20231;-82
2023/10/20 13:21:10;;;;;;;1.35;1.27;;;;;;;;;;5073231;28;20225;-83
2023/10/20 13:23:37;;;;;;;1.80;1.70;;;;;;;;;;5073426;28;20213;-83
2023/10/20 13:26:05;;;;;;;1.40;1.33;;;;;;;;;;5073191;28;20228;-83
2023/10/20 13:28:32;;;;;;;1.33;1.23;;;;;;;;;;5073306;28;20225;-84
2023/10/20 13:31:03;;;;;;;1.17;1.17;;;;;;;;;;5072924;28;20231;-81
2023/10/20 13:33:33;;;;;;;1.40;1.30;;;;;;;;;;5073639;28;20205;-83
2023/10/20 13:36:04;;;;;;;2.65;1.60;;;;;;;;;;5073129;28;20278;-82
2023/10/20 13:38:31;;;;;;;1.45;1.35;;;;;;;;;;5073472;28;20245;-82
2023/10/20 13:40:59;;;;;;;1.08;1.08;;;;;;;;;;5072669;28;20687;-82
2023/10/20 13:43:26;;;;;;;1.35;1.10;;;;;;;;;;5073448;28;20255;-82
2023/10/20 13:45:53;;;;;;;1.20;1.20;;;;;;;;;;5067741;28;20647;-82
2023/10/20 13:48:20;;;;;;;1.52;1.42;;;;;;;;;;5073231;28;20251;-82
2023/10/20 13:50:49;;;;;;;1.83;1.63;;;;;;;;;;5072227;28;20766;-82
2023/10/20 13:53:16;;;;;;;0.98;0.98;;;;;;;;;;5073306;28;20209;-82
2023/10/20 13:55:43;;;;;;;1.17;1.17;;;;;;;;;;5072292;28;20233;-83
2023/10/20 13:58:11;;;;;;;1.23;1.13;;;;;;;;;;5073106;28;20201;-82
2023/10/20 14:00:38;;;;;;;1.40;1.30;;;;;;;;;;5072201;28;20270;-83
2023/10/20 14:03:06;;;;;;;1.85;1.40;;;;;;;;;;5059902;28;20205;-82
2023/10/20 14:05:33;;;;;;;1.10;1.05;;;;;;;;;;5052391;28;20230;-83
2023/10/20 14:08:01;;;;;;;1.10;1.10;;;;;;;;;;5052886;28;20211;-82
2023/10/20 14:10:29;;;;;;;0.90;0.90;;;;;;;;;;5052543;28;20234;-83
2023/10/20 14:12:56;;;;;;;2.38;1.15;;;;;;;;;;5052562;28;20202;-82
2023/10/20 14:15:24;;;;;;;1.60;1.50;;;;;;;;;;5052371;28;20244;-82
2023/10/20 14:17:51;;;;;;;1.50;1.10;;;;;;;;;;5052483;28;20676;-82
2023/10/20 14:20:18;;;;;;;0.93;0.93;;;;;;;;;;5052362;28;20209;-82
2023/10/20 14:22:47;;;;;;;1.15;1.15;;;;;;;;;;5052087;28;20206;-82
2023/10/20 14:25:17;;;;;;;1.15;1.05;;;;;;;;;;5052322;28;20210;-82
2023/10/20 14:27:44;;;;;;;1.20;1.20;;;;;;;;;;5052165;28;20837;-82
2023/10/20 14:30:11;;;;;;;1.38;1.27;;;;;;;;;;5052352;28;20221;-82
2023/10/20 14:32:38;;;;;;;0.73;0.73;;;;;;;;;;5069168;28;20217;-82
2023/10/20 14:35:06;;;;;;;1.02;0.93;;;;;;;;;;5071908;28;20197;-82
2023/10/20 14:37:33;;;;;;;1.17;1.15;;;;;;;;;;5072351;28;20213;-82
2023/10/20 14:40:00;;;;;;;1.30;1.27;;;;;;;;;;5072134;28;20225;-82
2023/10/20 14:42:29;;;;;;;2.22;1.15;;;;;;;;;;5071564;28;20232;-82
2023/10/20 14:44:56;;;;;;;1.40;1.30;;;;;;;;;;5071959;28;20573;-82
2023/10/20 14:47:23;;;;;;;0.60;0.60;;;;;;;;;;5071513;28;20235;-82
2023/10/20 14:49:50;;;;;;;1.00;1.00;;;;;;;;;;5066431;28;20550;-81
2023/10/20 14:52:17;;;;;;;1.25;1.17;;;;;;;;;;5069732;28;20229;-82
2023/10/20 14:54:44;;;;;;;0.63;0.63;;;;;;;;;;5061815;28;20209;-83
2023/10/20 14:57:12;;;;;;;0.70;0.70;;;;;;;;;;5049871;28;20230;-82
2023/10/20 14:59:40;;;;;;;0.80;0.80;;;;;;;;;;5051369;28;20226;-81
2023/10/20 15:02:07;;;;;;;0.57;0.57;;;;;;;;;;5056208;28;20699;-81
2023/10/20 15:04:34;;;;;;;1.65;0.70;;;;;;;;;;5071687;28;20686;-82
2023/10/20 15:07:01;;;;;;;0.63;0.63;;;;;;;;;;5067734;28;20240;-82
2023/10/20 15:09:29;;;;;;;0.60;0.60;;;;;;;;;;5051555;28;20226;-82